Baise, China
Current Conditions -  °F | °C
As of 12:00 AM on Friday 31 Oct 2014 (Local Time) from ZGNN Reporting Station
Scattered Clouds Scattered Clouds  
Wind Chill: 75°   Ceiling: Unl
Heat Index: 75°   Visibility: 6mi
Dew Point: 75°   Wind: 4mph
Humidity: 100%   Direction: 140°SE
Pressure: 29.94"   Gusts: NA
Location:  23.9°N, 106.6°E
Report Text: ZGNN 301600Z 14002MPS 9999 SCT013 24/24 Q1014 NOSIG
Loading
Personal Weather Stations






























Interactive Weather Map
Tropical Storm Tracking
New forecast layout! Learn more

10-Day Weather Forecast

Advertisements
Track Severe Weather on mobile